Time;durP1;ratioP1;P1;durP2;ratioP2;P2;SDS_P1;SDS_P2;PMS_P1;PMS_P2;Temp;Humidity;BMP_temperature;BMP_pressure;BME280_temperature;BME280_humidity;BME280_pressure;Samples;Min_cycle;Max_cycle;Signal;HPM_P1;HPM_P2
2020/12/20 00:00:14;;;;;;;1.60;1.07;;;10.60;98.20;;;;;;4979243;28;20684;-75
2020/12/20 00:02:40;;;;;;;1.60;1.20;;;10.60;98.20;;;;;;4978556;28;20741;-77
2020/12/20 00:05:07;;;;;;;1.60;1.10;;;10.60;98.20;;;;;;4977494;28;20525;-77
2020/12/20 00:07:34;;;;;;;1.90;1.50;;;10.60;98.20;;;;;;4978945;28;20474;-77
2020/12/20 00:10:00;;;;;;;1.60;1.20;;;10.60;98.20;;;;;;4978564;28;20458;-76
2020/12/20 00:12:27;;;;;;;1.60;1.10;;;10.60;98.20;;;;;;4976913;28;20509;-77
2020/12/20 00:14:53;;;;;;;2.23;2.03;;;10.60;98.20;;;;;;4979093;28;20513;-76
2020/12/20 00:17:20;;;;;;;1.60;1.20;;;10.60;98.20;;;;;;4983751;28;20459;-75
2020/12/20 00:19:47;;;;;;;1.60;1.20;;;10.70;98.20;;;;;;4981398;28;20486;-76
2020/12/20 00:22:14;;;;;;;1.60;1.10;;;10.70;98.20;;;;;;4983612;28;20864;-76
2020/12/20 00:24:43;;;;;;;1.60;1.10;;;10.70;98.20;;;;;;4985234;28;20499;-77
2020/12/20 00:27:10;;;;;;;1.60;1.20;;;10.70;98.20;;;;;;4986984;28;20832;-77
2020/12/20 00:29:38;;;;;;;1.60;1.10;;;10.70;98.20;;;;;;4981727;28;20473;-76
2020/12/20 00:32:06;;;;;;;1.60;1.10;;;10.70;98.20;;;;;;4982520;28;20463;-76
2020/12/20 00:34:34;;;;;;;1.60;1.10;;;10.70;98.20;;;;;;4986288;28;20809;-76
2020/12/20 00:37:01;;;;;;;1.60;1.10;;;10.70;98.20;;;;;;4986423;28;20463;-77
2020/12/20 00:39:28;;;;;;;1.60;1.10;;;10.60;98.20;;;;;;4985790;28;20497;-74
2020/12/20 00:41:56;;;;;;;1.60;1.10;;;10.60;98.20;;;;;;4985660;28;20836;-75
2020/12/20 00:44:24;;;;;;;1.60;1.20;;;10.50;98.20;;;;;;4986651;28;20487;-76
2020/12/20 00:46:52;;;;;;;1.60;1.10;;;10.50;98.20;;;;;;4983369;28;20494;-76
2020/12/20 00:49:19;;;;;;;1.60;1.07;;;10.50;98.20;;;;;;4983687;28;20454;-76
2020/12/20 00:51:46;;;;;;;1.60;1.10;;;10.50;98.20;;;;;;4984273;28;20466;-76
2020/12/20 00:54:12;;;;;;;1.60;1.20;;;10.50;98.20;;;;;;4984553;28;20499;-76
2020/12/20 00:56:39;;;;;;;1.60;1.10;;;10.40;98.20;;;;;;4985686;28;20455;-76
2020/12/20 00:59:05;;;;;;;1.60;1.20;;;10.40;98.20;;;;;;4986572;28;20490;-76
2020/12/20 01:01:32;;;;;;;1.60;1.27;;;10.40;98.20;;;;;;4987806;28;20870;-76
2020/12/20 01:03:58;;;;;;;1.60;1.10;;;10.40;98.20;;;;;;4984662;28;20482;-76
2020/12/20 01:06:25;;;;;;;1.60;1.10;;;10.30;98.20;;;;;;4987317;28;20482;-76
2020/12/20 01:08:52;;;;;;;1.60;1.20;;;10.30;98.20;;;;;;4985970;28;20466;-76
2020/12/20 01:11:20;;;;;;;1.60;1.10;;;10.30;98.20;;;;;;4973255;28;20478;-76
2020/12/20 01:13:47;;;;;;;1.63;1.10;;;10.30;98.20;;;;;;4986781;28;20462;-76
2020/12/20 01:16:15;;;;;;;1.60;1.10;;;10.30;98.20;;;;;;4985355;28;20493;-76
2020/12/20 01:18:41;;;;;;;1.60;1.20;;;10.30;98.20;;;;;;4985824;28;20473;-74
2020/12/20 01:21:08;;;;;;;1.60;1.10;;;10.30;98.20;;;;;;4986604;28;20897;-74
2020/12/20 01:23:34;;;;;;;1.67;1.20;;;10.20;98.20;;;;;;4985886;28;20478;-74
2020/12/20 01:26:02;;;;;;;1.60;1.10;;;10.20;98.20;;;;;;4998095;28;20485;-76
2020/12/20 01:28:28;;;;;;;1.60;1.20;;;10.20;98.20;;;;;;4987532;28;20491;-76
2020/12/20 01:30:59;;;;;;;1.60;1.13;;;10.20;98.20;;;;;;4986179;28;20473;-76
2020/12/20 01:33:25;;;;;;;1.60;1.20;;;10.30;98.20;;;;;;4983964;28;20507;-76
2020/12/20 01:35:52;;;;;;;1.60;1.10;;;10.30;98.20;;;;;;4988187;28;20621;-76
2020/12/20 01:38:19;;;;;;;1.60;1.10;;;10.30;98.20;;;;;;4992325;28;20466;-76
2020/12/20 01:40:51;;;;;;;1.60;1.10;;;10.30;98.20;;;;;;4992890;28;20521;-76
2020/12/20 01:43:19;;;;;;;1.60;1.20;;;10.30;98.20;;;;;;4991795;28;20458;-76
2020/12/20 01:45:45;;;;;;;1.60;1.20;;;10.40;98.20;;;;;;5000394;23;20560;-74
2020/12/20 01:48:12;;;;;;;1.60;1.20;;;10.40;98.20;;;;;;4981558;28;20551;-74
2020/12/20 01:50:39;;;;;;;1.60;1.10;;;10.40;98.20;;;;;;4973422;28;20556;-75
2020/12/20 01:53:07;;;;;;;1.60;1.20;;;10.50;98.20;;;;;;4972772;28;20466;-74
2020/12/20 01:55:33;;;;;;;1.60;1.20;;;10.50;98.20;;;;;;4979846;28;20914;-75
2020/12/20 01:58:00;;;;;;;1.60;1.10;;;10.60;98.20;;;;;;4969381;28;20904;-76
2020/12/20 02:00:27;;;;;;;1.60;1.17;;;10.60;98.20;;;;;;4968377;28;20463;-76
2020/12/20 02:02:53;;;;;;;1.60;1.20;;;10.70;98.20;;;;;;4968730;28;20465;-75
2020/12/20 02:05:20;;;;;;;1.60;1.20;;;10.70;98.20;;;;;;4967311;28;20912;-75
2020/12/20 02:07:47;;;;;;;1.60;1.13;;;10.70;98.20;;;;;;4975204;28;21024;-75
2020/12/20 02:10:17;;;;;;;1.60;1.17;;;10.70;98.20;;;;;;4965352;28;20813;-74
2020/12/20 02:12:43;;;;;;;1.60;1.10;;;10.70;98.20;;;;;;4968657;28;20470;-76
2020/12/20 02:15:10;;;;;;;1.60;1.10;;;10.70;98.20;;;;;;4971939;28;20972;-75
2020/12/20 02:17:37;;;;;;;1.60;1.10;;;10.70;98.20;;;;;;4973859;28;20972;-75
2020/12/20 02:20:04;;;;;;;1.60;1.17;;;10.70;98.20;;;;;;4975642;28;20896;-75
2020/12/20 02:22:32;;;;;;;1.60;1.20;;;10.70;98.20;;;;;;4967903;28;20549;-75
2020/12/20 02:24:59;;;;;;;2.90;2.70;;;10.70;98.20;;;;;;4966671;28;20489;-74
2020/12/20 02:27:26;;;;;;;1.63;1.17;;;10.70;98.20;;;;;;4970425;28;20462;-75
2020/12/20 02:29:52;;;;;;;1.60;1.10;;;10.70;98.20;;;;;;4975965;28;20470;-74
2020/12/20 02:32:19;;;;;;;1.60;1.20;;;10.70;98.20;;;;;;4966155;28;20506;-76
2020/12/20 02:34:45;;;;;;;1.60;1.20;;;10.70;98.20;;;;;;4972187;28;21012;-75
2020/12/20 02:37:12;;;;;;;1.60;1.07;;;10.70;98.20;;;;;;4967776;28;20558;-75
2020/12/20 02:39:41;;;;;;;1.90;1.63;;;10.70;98.20;;;;;;4972919;28;21032;-75
2020/12/20 02:42:08;;;;;;;1.60;1.10;;;10.70;98.20;;;;;;4974465;28;20466;-74
2020/12/20 02:44:35;;;;;;;1.60;1.13;;;10.70;98.20;;;;;;4972920;28;20522;-74
2020/12/20 02:47:01;;;;;;;1.60;1.10;;;10.70;98.20;;;;;;4969883;28;20466;-75
2020/12/20 02:49:28;;;;;;;1.60;1.10;;;10.70;98.20;;;;;;4969602;28;20520;-75
2020/12/20 02:51:54;;;;;;;1.60;1.10;;;10.70;98.20;;;;;;4969242;28;20466;-75
2020/12/20 02:54:20;;;;;;;1.60;1.10;;;10.70;98.20;;;;;;4973473;28;20544;-76
2020/12/20 02:56:48;;;;;;;1.60;1.10;;;10.60;98.20;;;;;;4961043;28;20565;-75
2020/12/20 02:59:14;;;;;;;1.60;1.20;;;10.60;98.20;;;;;;4969628;28;20766;-75
2020/12/20 03:01:40;;;;;;;1.60;1.20;;;10.60;98.20;;;;;;4972517;28;21000;-74
2020/12/20 03:04:07;;;;;;;1.60;1.20;;;10.60;98.20;;;;;;4965571;28;21054;-75
2020/12/20 03:06:33;;;;;;;1.60;1.10;;;10.50;98.20;;;;;;4968049;28;20560;-74
2020/12/20 03:09:00;;;;;;;1.60;1.20;;;10.50;98.20;;;;;;4971644;28;21003;-75
2020/12/20 03:11:26;;;;;;;1.60;1.10;;;10.50;98.20;;;;;;4969343;28;20908;-75
2020/12/20 03:13:53;;;;;;;1.60;1.10;;;10.50;98.20;;;;;;4966301;28;20545;-76
2020/12/20 03:16:20;;;;;;;1.60;1.10;;;10.50;98.20;;;;;;4963990;28;20565;-75
2020/12/20 03:18:46;;;;;;;1.60;1.20;;;10.50;98.20;;;;;;4972316;28;20470;-75
2020/12/20 03:21:13;;;;;;;1.60;1.17;;;10.50;98.20;;;;;;4958253;28;20474;-75
2020/12/20 03:23:39;;;;;;;1.60;1.20;;;10.50;98.20;;;;;;4969085;28;21131;-76
2020/12/20 03:26:07;;;;;;;1.60;1.20;;;10.50;98.20;;;;;;4973683;28;20577;-75
2020/12/20 03:28:33;;;;;;;1.60;1.20;;;10.40;98.20;;;;;;4970843;28;20529;-75
2020/12/20 03:31:01;;;;;;;1.60;1.17;;;10.40;98.20;;;;;;4959058;28;21148;-76
2020/12/20 03:33:27;;;;;;;1.70;1.40;;;10.40;98.20;;;;;;4963408;28;20549;-75
2020/12/20 03:35:54;;;;;;;1.60;1.30;;;10.40;98.20;;;;;;4971543;28;20545;-75
2020/12/20 03:38:20;;;;;;;1.60;1.20;;;10.40;98.20;;;;;;4968704;28;20554;-74
2020/12/20 03:40:46;;;;;;;1.60;1.20;;;10.30;98.20;;;;;;4965300;28;20911;-74
2020/12/20 03:43:13;;;;;;;2.57;2.37;;;10.30;98.20;;;;;;4969471;28;21055;-77
2020/12/20 03:45:39;;;;;;;1.60;1.13;;;10.30;98.20;;;;;;4969128;28;20588;-74
2020/12/20 03:48:07;;;;;;;1.60;1.10;;;10.30;98.20;;;;;;4965809;28;20557;-77
2020/12/20 03:50:34;;;;;;;1.60;1.10;;;10.30;98.20;;;;;;4965126;28;20670;-75
2020/12/20 03:53:01;;;;;;;1.60;1.20;;;10.30;98.20;;;;;;4966543;28;20825;-76
2020/12/20 03:55:27;;;;;;;1.60;1.10;;;10.30;98.20;;;;;;4969737;28;20992;-75
2020/12/20 03:57:53;;;;;;;1.60;1.20;;;10.30;98.20;;;;;;4958402;28;20563;-76
2020/12/20 04:00:20;;;;;;;1.60;1.10;;;10.30;98.20;;;;;;4960972;28;20505;-74
2020/12/20 04:02:48;;;;;;;1.60;1.20;;;10.20;98.20;;;;;;4971441;28;20477;-73
2020/12/20 04:05:15;;;;;;;1.60;1.10;;;10.30;98.20;;;;;;4971240;28;20557;-74
2020/12/20 04:07:43;;;;;;;1.60;1.10;;;10.20;98.20;;;;;;4959517;28;20471;-74
2020/12/20 04:10:09;;;;;;;1.60;1.27;;;10.20;98.20;;;;;;4962904;28;20588;-75
2020/12/20 04:12:36;;;;;;;1.60;1.20;;;10.20;98.20;;;;;;4969475;28;20669;-76
2020/12/20 04:15:03;;;;;;;1.67;1.30;;;10.20;98.20;;;;;;4961487;28;21039;-75
2020/12/20 04:17:30;;;;;;;1.60;1.20;;;10.20;98.20;;;;;;4964931;28;20554;-75
2020/12/20 04:19:56;;;;;;;1.60;1.20;;;10.20;98.20;;;;;;4967547;28;20909;-74
2020/12/20 04:22:24;;;;;;;1.60;1.10;;;10.20;98.20;;;;;;4965538;28;20510;-75
2020/12/20 04:24:50;;;;;;;3.27;1.87;;;10.30;98.20;;;;;;4965078;28;20573;-74
2020/12/20 04:27:16;;;;;;;1.70;1.30;;;10.30;98.20;;;;;;4970104;28;21001;-74
2020/12/20 04:29:43;;;;;;;1.60;1.20;;;10.30;98.20;;;;;;4982355;28;20932;-74
2020/12/20 04:32:09;;;;;;;1.60;1.20;;;10.30;98.20;;;;;;4975291;28;20541;-75
2020/12/20 04:34:36;;;;;;;1.60;1.20;;;10.30;98.20;;;;;;4965618;28;20497;-75
2020/12/20 04:37:02;;;;;;;1.60;1.10;;;10.30;98.20;;;;;;4963666;28;20553;-74
2020/12/20 04:39:30;;;;;;;1.60;1.10;;;10.30;98.20;;;;;;4970146;28;20706;-74
2020/12/20 04:41:56;;;;;;;1.60;1.13;;;10.20;98.20;;;;;;4971119;28;20561;-75
2020/12/20 04:44:22;;;;;;;1.60;1.20;;;10.20;98.20;;;;;;4969023;28;20486;-76
2020/12/20 04:46:49;;;;;;;1.60;1.20;;;10.20;98.20;;;;;;4965577;28;20626;-77
2020/12/20 04:49:16;;;;;;;1.60;1.10;;;10.20;98.20;;;;;;4969943;28;20533;-74
2020/12/20 04:51:43;;;;;;;1.60;1.10;;;10.20;98.20;;;;;;4968094;28;20517;-74
2020/12/20 04:54:10;;;;;;;1.60;1.20;;;10.30;98.20;;;;;;4967729;28;20466;-75
2020/12/20 04:56:38;;;;;;;1.60;1.20;;;10.30;98.20;;;;;;4967490;28;20576;-74
2020/12/20 04:59:06;;;;;;;1.60;1.10;;;10.20;98.20;;;;;;4973467;28;20887;-74
2020/12/20 05:01:34;;;;;;;1.60;1.20;;;10.20;98.20;;;;;;4967674;28;20477;-75
2020/12/20 05:04:00;;;;;;;1.60;1.20;;;10.20;98.20;;;;;;4974494;28;20485;-73
2020/12/20 05:06:29;;;;;;;1.60;1.20;;;10.20;98.20;;;;;;4970969;28;20901;-73
2020/12/20 05:08:59;;;;;;;1.60;1.20;;;10.20;98.20;;;;;;4964030;28;20990;-76
2020/12/20 05:11:36;;;;;;;1.60;1.17;;;10.20;98.20;;;;;;4965463;28;20471;-75
2020/12/20 05:14:05;;;;;;;1.60;1.20;;;10.10;98.20;;;;;;4970250;28;20517;-74
2020/12/20 05:16:35;;;;;;;1.60;1.20;;;10.10;98.20;;;;;;4964210;28;20521;-75
2020/12/20 05:19:04;;;;;;;1.63;1.20;;;10.10;98.20;;;;;;4961874;28;20470;-75
2020/12/20 05:21:31;;;;;;;1.60;1.20;;;10.10;98.20;;;;;;4967435;28;20473;-75
2020/12/20 05:23:59;;;;;;;1.60;1.10;;;10.10;98.20;;;;;;4977297;28;20488;-75
2020/12/20 05:26:29;;;;;;;1.60;1.20;;;10.10;98.20;;;;;;4970291;28;20518;-75
2020/12/20 05:29:09;;;;;;;1.60;1.10;;;10.10;98.20;;;;;;4966437;28;20555;-75
2020/12/20 05:31:35;;;;;;;1.60;1.20;;;10.10;98.20;;;;;;4969270;28;20466;-74
2020/12/20 05:34:02;;;;;;;1.60;1.10;;;10.10;98.20;;;;;;4973075;28;20501;-74
2020/12/20 05:36:29;;;;;;;1.60;1.20;;;10.10;98.20;;;;;;4963743;28;20559;-74
2020/12/20 05:39:12;;;;;;;1.60;1.10;;;10.10;98.20;;;;;;4969745;28;20961;-76
2020/12/20 05:41:39;;;;;;;1.70;1.40;;;10.20;98.20;;;;;;4969581;28;20516;-74
2020/12/20 05:44:15;;;;;;;1.60;1.20;;;10.20;98.20;;;;;;4964560;28;20486;-74
2020/12/20 05:46:43;;;;;;;1.60;1.13;;;10.20;98.20;;;;;;4968265;28;20525;-75
2020/12/20 05:49:19;;;;;;;1.63;1.37;;;10.20;98.20;;;;;;4970213;28;20475;-74
2020/12/20 05:52:06;;;;;;;1.60;1.20;;;10.20;98.20;;;;;;4967197;28;20502;-74
2020/12/20 05:54:37;;;;;;;3.10;2.10;;;10.20;98.20;;;;;;4975212;28;20980;-75
2020/12/20 05:57:11;;;;;;;2.13;1.93;;;10.10;98.20;;;;;;4976405;28;20542;-75
2020/12/20 05:59:39;;;;;;;1.60;1.10;;;10.10;98.20;;;;;;4962902;28;20526;-76
2020/12/20 06:02:06;;;;;;;1.60;1.10;;;10.10;98.20;;;;;;4966458;28;20557;-75
2020/12/20 06:04:34;;;;;;;1.60;1.20;;;10.10;98.20;;;;;;4969532;28;20522;-75
2020/12/20 06:07:01;;;;;;;1.60;1.10;;;10.10;98.20;;;;;;4969101;28;20498;-74
2020/12/20 06:09:29;;;;;;;1.60;1.13;;;10.10;98.20;;;;;;4966032;28;20506;-75
2020/12/20 06:11:57;;;;;;;1.60;1.23;;;10.10;98.20;;;;;;4968209;28;20558;-74
2020/12/20 06:14:25;;;;;;;1.60;1.30;;;10.10;98.20;;;;;;4969701;28;20469;-75
2020/12/20 06:17:14;;;;;;;1.60;1.20;;;10.10;98.20;;;;;;4969664;28;20533;-74
2020/12/20 06:19:55;;;;;;;1.60;1.10;;;10.10;98.20;;;;;;4955515;28;20478;-75
2020/12/20 06:22:23;;;;;;;1.60;1.20;;;10.10;98.20;;;;;;4968717;28;20883;-74
2020/12/20 06:24:51;;;;;;;1.60;1.30;;;10.10;98.20;;;;;;4975460;28;20581;-75
2020/12/20 06:27:20;;;;;;;1.60;1.20;;;10.10;98.20;;;;;;4970776;28;20537;-75
2020/12/20 06:29:49;;;;;;;1.60;1.10;;;10.10;98.20;;;;;;4969848;28;20831;-75
2020/12/20 06:32:21;;;;;;;1.60;1.13;;;10.10;98.20;;;;;;4972597;28;20466;-74
2020/12/20 06:34:48;;;;;;;1.60;1.27;;;10.00;98.20;;;;;;4972426;28;20510;-75
2020/12/20 06:37:18;;;;;;;1.60;1.10;;;10.10;98.20;;;;;;4971451;28;20582;-75
2020/12/20 06:39:45;;;;;;;1.60;1.20;;;10.10;98.20;;;;;;4965249;28;20520;-74
2020/12/20 06:42:12;;;;;;;1.60;1.13;;;10.10;98.20;;;;;;4973284;28;20476;-75
2020/12/20 06:44:38;;;;;;;1.60;1.20;;;10.10;98.20;;;;;;4967934;28;20843;-75
2020/12/20 06:47:05;;;;;;;1.60;1.10;;;10.00;98.20;;;;;;4964546;28;20549;-76
2020/12/20 06:49:36;;;;;;;1.60;1.17;;;10.00;98.20;;;;;;4973044;28;20471;-75
2020/12/20 06:52:27;;;;;;;1.60;1.20;;;10.00;98.20;;;;;;4970214;28;20521;-76
2020/12/20 06:55:10;;;;;;;1.60;1.20;;;9.90;98.20;;;;;;4954518;28;20787;-75
2020/12/20 06:57:57;;;;;;;1.60;1.20;;;9.90;98.20;;;;;;4974878;28;20472;-75
2020/12/20 07:00:39;;;;;;;1.60;1.20;;;9.90;98.20;;;;;;4970335;28;20617;-74
2020/12/20 07:03:06;;;;;;;1.60;1.10;;;9.90;98.20;;;;;;4981639;28;20540;-76
2020/12/20 07:05:41;;;;;;;1.60;1.10;;;9.90;98.20;;;;;;4972718;28;20609;-76
2020/12/20 07:08:23;;;;;;;1.67;1.30;;;9.80;98.20;;;;;;4967140;28;20497;-75
2020/12/20 07:10:51;;;;;;;1.60;1.20;;;9.80;98.20;;;;;;4966519;28;20470;-77
2020/12/20 07:13:33;;;;;;;1.70;1.30;;;9.80;98.20;;;;;;4972837;28;20510;-75
2020/12/20 07:16:07;;;;;;;1.60;1.20;;;9.80;98.20;;;;;;4973173;28;20490;-76
2020/12/20 07:18:45;;;;;;;1.60;1.20;;;9.80;98.20;;;;;;4974951;28;20500;-77
2020/12/20 07:21:28;;;;;;;1.60;1.20;;;9.80;98.20;;;;;;4965276;28;20988;-77
2020/12/20 07:24:02;;;;;;;1.60;1.10;;;9.80;98.20;;;;;;4960714;28;20525;-76
2020/12/20 07:26:28;;;;;;;4.43;2.47;;;9.70;98.20;;;;;;4972357;28;20526;-76
2020/12/20 07:28:58;;;;;;;1.67;1.20;;;9.70;98.20;;;;;;4965019;28;20898;-75
2020/12/20 07:31:25;;;;;;;1.60;1.20;;;9.70;98.20;;;;;;4978837;28;20466;-76
2020/12/20 07:33:52;;;;;;;1.63;1.20;;;9.60;98.20;;;;;;4972543;28;20509;-76
2020/12/20 07:36:21;;;;;;;1.63;1.20;;;9.60;98.20;;;;;;4970609;28;20489;-76
2020/12/20 07:38:48;;;;;;;1.60;1.10;;;9.60;98.20;;;;;;4968957;28;20906;-77
2020/12/20 07:41:16;;;;;;;1.70;1.30;;;9.60;98.20;;;;;;4971760;28;20951;-75
2020/12/20 07:43:43;;;;;;;1.60;1.20;;;9.50;98.20;;;;;;4971027;28;20513;-76
2020/12/20 07:46:11;;;;;;;1.60;1.10;;;9.50;98.20;;;;;;4964063;28;20522;-76
2020/12/20 07:48:39;;;;;;;1.60;1.20;;;9.50;98.20;;;;;;4971340;28;20558;-76
2020/12/20 07:51:10;;;;;;;1.70;1.40;;;9.50;98.20;;;;;;4965087;28;20524;-76
2020/12/20 07:53:43;;;;;;;1.63;1.30;;;9.50;98.20;;;;;;4979726;28;20509;-76
2020/12/20 07:56:10;;;;;;;1.60;1.20;;;9.50;98.20;;;;;;4989211;28;20557;-75
2020/12/20 07:58:37;;;;;;;1.60;1.10;;;9.50;98.20;;;;;;4987517;28;20465;-77
2020/12/20 08:01:04;;;;;;;1.70;1.40;;;9.50;98.20;;;;;;4983367;28;20466;-76
2020/12/20 08:03:31;;;;;;;1.60;1.10;;;9.40;98.20;;;;;;4996801;28;20589;-76
2020/12/20 08:06:05;;;;;;;1.60;1.20;;;9.50;98.20;;;;;;4986519;28;20531;-77
2020/12/20 08:08:31;;;;;;;1.60;1.30;;;9.50;98.20;;;;;;4989906;28;20461;-76
2020/12/20 08:11:02;;;;;;;1.60;1.10;;;9.50;98.20;;;;;;4990331;28;20868;-77
2020/12/20 08:13:28;;;;;;;1.60;1.20;;;9.50;98.20;;;;;;4987601;28;20474;-77
2020/12/20 08:15:55;;;;;;;1.70;1.40;;;9.50;98.20;;;;;;4985749;28;20489;-76
2020/12/20 08:18:22;;;;;;;1.60;1.20;;;9.60;98.20;;;;;;4991143;28;20831;-76
2020/12/20 08:20:48;;;;;;;1.63;1.20;;;9.60;98.20;;;;;;4994378;28;20500;-76
2020/12/20 08:23:15;;;;;;;1.60;1.20;;;9.60;98.20;;;;;;4980354;28;20609;-76
2020/12/20 08:25:42;;;;;;;1.60;1.10;;;9.60;98.20;;;;;;4988625;28;20528;-77
2020/12/20 08:28:10;;;;;;;1.70;1.20;;;9.60;98.20;;;;;;4986757;28;20840;-76
2020/12/20 08:30:38;;;;;;;1.60;1.20;;;9.60;98.20;;;;;;4988340;28;20505;-76
2020/12/20 08:33:04;;;;;;;1.60;1.27;;;9.60;98.20;;;;;;4987173;28;20474;-76
2020/12/20 08:35:31;;;;;;;1.60;1.10;;;9.60;98.20;;;;;;4986064;28;20505;-76
2020/12/20 08:37:59;;;;;;;1.60;1.20;;;9.70;98.20;;;;;;4985837;28;20544;-77
2020/12/20 08:40:30;;;;;;;1.60;1.20;;;9.70;98.20;;;;;;4990234;28;20465;-76
2020/12/20 08:42:58;;;;;;;1.60;1.20;;;9.70;98.20;;;;;;4987016;28;20473;-76
2020/12/20 08:45:28;;;;;;;1.63;1.20;;;9.70;98.20;;;;;;4985646;28;20568;-77
2020/12/20 08:48:01;;;;;;;1.60;1.10;;;9.80;98.20;;;;;;4983019;28;20824;-76
2020/12/20 08:50:30;;;;;;;1.70;1.27;;;9.80;98.20;;;;;;4990503;28;21019;-76
2020/12/20 08:53:00;;;;;;;1.60;1.20;;;9.80;98.20;;;;;;4986618;28;20469;-76
2020/12/20 08:55:27;;;;;;;1.60;1.10;;;9.90;98.20;;;;;;5000354;28;20589;-76
2020/12/20 08:58:05;;;;;;;1.60;1.20;;;9.90;98.20;;;;;;4982816;28;20502;-76
2020/12/20 09:00:34;;;;;;;1.60;1.20;;;10.00;98.20;;;;;;4989495;28;20461;-76
2020/12/20 09:03:01;;;;;;;1.60;1.20;;;10.00;98.20;;;;;;4997517;28;20955;-75
2020/12/20 09:05:29;;;;;;;1.60;1.30;;;10.10;98.20;;;;;;4983428;28;20520;-76
2020/12/20 09:07:57;;;;;;;1.67;1.20;;;10.10;98.20;;;;;;4986541;28;20462;-75
2020/12/20 09:10:26;;;;;;;1.60;1.20;;;10.10;98.20;;;;;;4986567;28;20984;-76
2020/12/20 09:12:54;;;;;;;2.10;1.60;;;10.20;98.20;;;;;;4983759;28;20473;-76
2020/12/20 09:15:22;;;;;;;1.60;1.10;;;10.20;98.20;;;;;;4979759;28;20600;-76
2020/12/20 09:17:50;;;;;;;1.60;1.13;;;10.20;98.20;;;;;;4981570;28;20494;-75
2020/12/20 09:20:18;;;;;;;1.60;1.20;;;10.30;98.20;;;;;;4982873;28;20493;-76
2020/12/20 09:22:51;;;;;;;1.70;1.40;;;10.30;98.20;;;;;;4989402;28;20508;-76
2020/12/20 09:25:34;;;;;;;1.60;1.30;;;10.30;98.20;;;;;;4991846;28;20496;-75
2020/12/20 09:28:02;;;;;;;1.67;1.30;;;10.40;98.20;;;;;;4984791;28;20470;-77
2020/12/20 09:30:43;;;;;;;1.60;1.10;;;10.40;98.20;;;;;;4987502;28;20506;-75
2020/12/20 09:33:21;;;;;;;1.60;1.10;;;10.50;98.20;;;;;;4991551;28;20465;-75
2020/12/20 09:35:50;;;;;;;1.60;1.07;;;10.60;98.20;;;;;;4986814;28;20489;-74
2020/12/20 09:38:16;;;;;;;1.60;1.13;;;10.60;98.20;;;;;;4984979;28;20469;-75
2020/12/20 09:40:43;;;;;;;1.60;1.20;;;10.70;98.20;;;;;;4990225;28;20481;-76
2020/12/20 09:43:09;;;;;;;1.60;1.10;;;10.70;98.20;;;;;;4989704;28;20464;-76
2020/12/20 09:45:38;;;;;;;1.60;1.10;;;10.80;98.20;;;;;;4982088;28;20552;-76
2020/12/20 09:48:04;;;;;;;1.60;1.10;;;10.90;98.20;;;;;;4984973;28;20473;-76
2020/12/20 09:50:32;;;;;;;1.67;1.20;;;10.90;98.20;;;;;;4988796;28;20551;-76
2020/12/20 09:52:58;;;;;;;1.70;1.20;;;11.00;98.20;;;;;;4986151;28;20470;-76
2020/12/20 09:55:25;;;;;;;1.60;1.10;;;11.00;98.20;;;;;;4989356;28;21187;-75
2020/12/20 09:57:51;;;;;;;1.60;1.10;;;11.10;98.20;;;;;;4990223;28;20485;-76
2020/12/20 10:00:18;;;;;;;1.60;1.10;;;11.20;98.20;;;;;;4991924;28;20464;-76
2020/12/20 10:02:44;;;;;;;1.60;1.10;;;11.20;98.20;;;;;;4987415;28;20472;-75
2020/12/20 10:05:10;;;;;;;1.60;1.10;;;11.20;98.20;;;;;;4985413;28;20938;-76
2020/12/20 10:07:38;;;;;;;1.60;1.10;;;11.20;98.20;;;;;;4989213;28;20975;-75
2020/12/20 10:10:05;;;;;;;1.60;1.00;;;11.20;98.20;;;;;;4988428;28;20466;-76
2020/12/20 10:12:32;;;;;;;1.60;1.17;;;11.20;98.20;;;;;;4998770;28;20881;-76
2020/12/20 10:14:59;;;;;;;1.60;1.10;;;11.20;98.20;;;;;;4985610;28;20525;-76
2020/12/20 10:17:26;;;;;;;2.30;2.10;;;11.20;98.20;;;;;;4986888;28;20488;-76
2020/12/20 10:19:53;;;;;;;1.60;1.07;;;11.20;98.20;;;;;;4990529;28;20545;-75
2020/12/20 10:22:19;;;;;;;1.70;1.20;;;11.20;98.20;;;;;;4993448;28;20505;-75
2020/12/20 10:24:46;;;;;;;1.60;1.10;;;11.20;98.20;;;;;;4991674;28;20572;-74
2020/12/20 10:27:13;;;;;;;1.97;1.77;;;11.20;98.20;;;;;;4996697;28;20499;-74
2020/12/20 10:29:39;;;;;;;1.60;1.07;;;11.20;98.20;;;;;;4982517;28;20469;-74
2020/12/20 10:32:06;;;;;;;1.60;1.10;;;11.20;98.20;;;;;;4988871;28;20560;-75
2020/12/20 10:34:32;;;;;;;1.63;1.20;;;11.20;98.20;;;;;;4990869;28;21529;-74
2020/12/20 10:36:59;;;;;;;1.60;1.20;;;11.20;98.20;;;;;;4991619;28;20561;-74
2020/12/20 10:39:26;;;;;;;1.60;1.10;;;11.20;98.20;;;;;;4977174;28;20473;-74
2020/12/20 10:41:53;;;;;;;1.60;1.10;;;11.20;98.20;;;;;;4984750;28;20453;-74
2020/12/20 10:44:22;;;;;;;1.60;1.10;;;11.10;98.20;;;;;;4986476;28;20765;-75
2020/12/20 10:46:50;;;;;;;1.60;1.07;;;11.10;98.20;;;;;;4985361;28;20560;-75
2020/12/20 10:49:17;;;;;;;1.60;1.10;;;11.10;98.20;;;;;;4981805;28;20504;-76
2020/12/20 10:51:44;;;;;;;1.60;1.10;;;11.10;98.20;;;;;;4979560;28;20581;-75
2020/12/20 10:54:10;;;;;;;1.60;1.20;;;11.10;98.20;;;;;;4974281;28;20595;-77
2020/12/20 10:56:37;;;;;;;1.97;1.77;;;11.10;98.20;;;;;;4988922;28;20491;-75
2020/12/20 10:59:04;;;;;;;1.60;1.13;;;11.10;98.20;;;;;;4990312;28;20460;-75
2020/12/20 11:01:31;;;;;;;1.60;1.10;;;11.10;98.20;;;;;;4982085;28;20466;-75
2020/12/20 11:03:57;;;;;;;1.60;1.07;;;11.10;98.20;;;;;;4981778;28;20461;-75
2020/12/20 11:06:25;;;;;;;1.60;1.10;;;11.10;98.20;;;;;;4974613;28;20577;-75
2020/12/20 11:08:52;;;;;;;1.70;1.30;;;11.10;98.20;;;;;;4980499;28;20505;-76
2020/12/20 11:11:19;;;;;;;1.60;1.17;;;11.20;98.20;;;;;;4979165;28;20931;-75
2020/12/20 11:13:46;;;;;;;1.60;1.10;;;11.20;98.20;;;;;;4980814;28;20484;-76
2020/12/20 11:16:18;;;;;;;1.63;1.20;;;11.20;98.20;;;;;;4979404;28;20493;-75
2020/12/20 11:18:46;;;;;;;1.60;1.13;;;11.30;98.20;;;;;;4982600;28;20532;-76
2020/12/20 11:21:14;;;;;;;1.67;1.20;;;11.30;98.20;;;;;;4983620;28;20564;-76
2020/12/20 11:23:42;;;;;;;1.60;1.10;;;11.20;98.20;;;;;;4979080;28;20533;-77
2020/12/20 11:26:11;;;;;;;1.60;1.10;;;11.30;98.20;;;;;;4982068;28;20592;-76
2020/12/20 11:28:37;;;;;;;1.60;1.10;;;11.30;98.20;;;;;;4982907;28;20551;-75
2020/12/20 11:31:04;;;;;;;1.63;1.10;;;11.30;98.20;;;;;;4982130;28;20476;-75
2020/12/20 11:33:32;;;;;;;1.60;1.10;;;11.40;98.20;;;;;;4977509;28;20469;-75
2020/12/20 11:35:58;;;;;;;1.60;1.00;;;11.40;98.20;;;;;;4978522;28;21151;-76
2020/12/20 11:38:25;;;;;;;1.60;1.00;;;11.40;98.20;;;;;;4977999;28;21034;-75
2020/12/20 11:40:51;;;;;;;1.60;1.00;;;11.40;98.20;;;;;;4983720;28;20516;-76
2020/12/20 11:43:18;;;;;;;1.60;1.10;;;11.40;98.20;;;;;;4979958;28;20497;-76
2020/12/20 11:45:46;;;;;;;1.60;1.20;;;11.40;98.20;;;;;;4984986;28;20918;-77
2020/12/20 11:48:13;;;;;;;1.60;1.10;;;11.40;98.20;;;;;;4982427;28;20473;-76
2020/12/20 11:50:41;;;;;;;1.60;1.00;;;11.40;98.20;;;;;;4979928;28;20580;-76
2020/12/20 11:53:08;;;;;;;1.60;1.03;;;11.40;98.20;;;;;;4975722;28;21015;-75
2020/12/20 11:55:34;;;;;;;1.60;1.07;;;11.50;98.20;;;;;;4981323;28;20489;-76
2020/12/20 11:58:01;;;;;;;1.60;1.00;;;11.40;98.20;;;;;;4983961;28;20498;-77
2020/12/20 12:00:28;;;;;;;1.60;1.10;;;11.50;98.20;;;;;;4977267;28;20466;-75
2020/12/20 12:02:55;;;;;;;1.70;1.30;;;11.50;98.20;;;;;;4976047;28;20507;-75
2020/12/20 12:05:21;;;;;;;1.60;1.20;;;11.50;98.20;;;;;;4982356;28;20569;-75
2020/12/20 12:07:49;;;;;;;1.60;1.10;;;11.50;98.20;;;;;;4980632;28;20552;-75
2020/12/20 12:10:15;;;;;;;1.63;1.20;;;11.50;98.20;;;;;;4979546;28;20461;-76
2020/12/20 12:12:42;;;;;;;2.50;2.30;;;11.50;98.20;;;;;;4981908;28;20492;-75
2020/12/20 12:15:08;;;;;;;1.63;1.10;;;11.50;98.20;;;;;;4980779;28;20511;-75
2020/12/20 12:17:35;;;;;;;1.60;1.00;;;11.50;98.20;;;;;;4996489;28;21261;-76
2020/12/20 12:20:01;;;;;;;1.60;1.17;;;11.50;98.20;;;;;;4980688;28;20477;-76
2020/12/20 12:22:28;;;;;;;1.80;1.50;;;11.60;98.20;;;;;;4970389;28;20466;-77
2020/12/20 12:24:55;;;;;;;1.60;1.10;;;11.60;98.20;;;;;;4980957;28;20557;-76
2020/12/20 12:27:22;;;;;;;1.60;1.10;;;11.60;98.20;;;;;;4978602;28;20497;-75
2020/12/20 12:29:48;;;;;;;1.60;1.10;;;11.70;98.20;;;;;;4975694;28;20501;-76
2020/12/20 12:32:15;;;;;;;1.63;1.20;;;11.70;98.20;;;;;;4975072;28;20815;-76
2020/12/20 12:34:41;;;;;;;1.60;1.00;;;11.70;98.20;;;;;;4981376;28;20544;-77
2020/12/20 12:37:08;;;;;;;1.60;1.20;;;11.80;98.20;;;;;;4974293;28;20510;-75
2020/12/20 12:39:34;;;;;;;1.60;1.10;;;11.80;98.20;;;;;;4978868;28;20489;-76
2020/12/20 12:42:05;;;;;;;2.10;1.60;;;11.80;98.20;;;;;;4982105;28;20496;-76
2020/12/20 12:44:32;;;;;;;1.60;1.20;;;11.80;98.20;;;;;;4977234;28;21058;-76
2020/12/20 12:46:59;;;;;;;1.60;1.10;;;11.80;98.20;;;;;;4971294;28;20615;-76
2020/12/20 12:49:25;;;;;;;1.60;1.20;;;11.80;98.20;;;;;;4975826;28;20635;-76
2020/12/20 12:51:52;;;;;;;1.60;1.10;;;11.80;98.20;;;;;;4976418;28;21085;-75